createdAt,value
2024-05-09T00:01:25.722Z,23.54
2024-05-09T00:03:55.831Z,23.59
2024-05-09T00:06:26.066Z,23.52
2024-05-09T00:09:22.027Z,23.50
2024-05-09T00:11:58.133Z,23.47
2024-05-09T00:14:28.645Z,23.40
2024-05-09T00:16:58.785Z,23.41
2024-05-09T00:19:28.955Z,23.41
2024-05-09T00:21:58.949Z,23.57
2024-05-09T00:24:29.152Z,23.51
2024-05-09T00:27:00.162Z,23.55
2024-05-09T00:29:30.977Z,23.42
2024-05-09T00:32:01.326Z,23.40
2024-05-09T00:34:31.835Z,23.34
2024-05-09T00:37:26.906Z,23.35
2024-05-09T00:39:57.364Z,23.38
2024-05-09T00:42:27.315Z,23.37
2024-05-09T00:44:57.282Z,23.28
2024-05-09T00:47:27.500Z,23.25
2024-05-09T00:49:58.580Z,23.31
2024-05-09T00:52:30.007Z,23.35
2024-05-09T00:55:01.239Z,23.34
2024-05-09T00:57:31.941Z,23.45
2024-05-09T01:00:04.762Z,23.42
2024-05-09T01:02:36.477Z,23.42
2024-05-09T01:05:07.257Z,23.40
2024-05-09T01:07:37.437Z,23.34
2024-05-09T01:10:13.942Z,23.21
2024-05-09T01:13:12.018Z,23.06
2024-05-09T01:15:42.801Z,23.10
2024-05-09T01:18:14.074Z,23.06
2024-05-09T01:20:47.076Z,23.04
2024-05-09T01:23:26.346Z,22.96
2024-05-09T01:25:56.519Z,22.92
2024-05-09T01:28:26.650Z,22.86
2024-05-09T01:30:56.594Z,22.83
2024-05-09T01:33:27.032Z,22.77
2024-05-09T01:35:57.831Z,22.84
2024-05-09T01:38:28.084Z,22.83
2024-05-09T01:40:58.160Z,22.89
2024-05-09T01:43:28.298Z,22.92
2024-05-09T01:45:58.414Z,22.93
2024-05-09T01:48:28.618Z,22.83
2024-05-09T01:50:59.043Z,22.84
2024-05-09T01:53:29.072Z,22.80
2024-05-09T01:55:59.072Z,22.87
2024-05-09T01:58:29.506Z,22.83
2024-05-09T02:00:59.641Z,22.77
2024-05-09T02:03:31.094Z,22.64
2024-05-09T02:06:07.762Z,22.51
2024-05-09T02:09:02.965Z,22.29
2024-05-09T02:11:47.640Z,22.24
2024-05-09T02:15:03.412Z,22.19
2024-05-09T02:17:35.772Z,22.25
2024-05-09T02:20:06.534Z,22.19
2024-05-09T02:22:36.860Z,22.18
2024-05-09T02:28:33.408Z,22.24
2024-05-09T02:31:05.516Z,22.24
2024-05-09T02:33:44.638Z,22.19
2024-05-09T02:36:15.087Z,22.12
2024-05-09T02:38:48.750Z,22.08
2024-05-09T02:41:47.032Z,22.04
2024-05-09T02:44:17.051Z,22.15
2024-05-09T02:46:49.189Z,22.12
2024-05-09T02:49:20.082Z,22.18
2024-05-09T02:51:50.777Z,22.18
2024-05-09T02:54:20.775Z,22.16
2024-05-09T02:56:50.667Z,22.22
2024-05-09T02:59:20.570Z,22.24
2024-05-09T03:01:50.883Z,22.19
2024-05-09T03:04:25.178Z,22.18
2024-05-09T03:06:58.780Z,22.18
2024-05-09T03:09:29.275Z,22.02
2024-05-09T03:11:59.388Z,22.02
2024-05-09T03:14:30.204Z,21.98
2024-05-09T03:17:00.963Z,22.05
2024-05-09T03:19:31.504Z,22.00
2024-05-09T03:22:04.465Z,22.00
2024-05-09T03:24:34.697Z,21.88
2024-05-09T03:27:05.187Z,21.84
2024-05-09T03:29:35.462Z,21.77
2024-05-09T03:32:05.731Z,21.73
2024-05-09T03:34:41.276Z,21.64
2024-05-09T03:37:11.583Z,21.43
2024-05-09T03:39:43.037Z,21.33
2024-05-09T03:42:14.552Z,21.20
2024-05-09T03:44:45.108Z,21.12
2024-05-09T03:47:16.029Z,21.18
2024-05-09T03:49:47.140Z,21.19
2024-05-09T03:52:18.952Z,21.20
2024-05-09T03:54:49.152Z,21.09
2024-05-09T03:57:20.228Z,21.13
2024-05-09T03:59:50.888Z,21.12
2024-05-09T04:02:21.134Z,21.10
2024-05-09T04:04:51.297Z,21.05
2024-05-09T04:07:21.458Z,20.96
2024-05-09T04:09:54.557Z,20.91
2024-05-09T04:12:25.996Z,20.85
2024-05-09T04:14:56.150Z,20.89
2024-05-09T04:17:26.278Z,20.98
2024-05-09T04:19:56.485Z,20.98
2024-05-09T04:22:26.777Z,20.98
2024-05-09T04:25:22.297Z,20.96
2024-05-09T04:27:56.745Z,21.02
2024-05-09T04:30:52.617Z,21.03
2024-05-09T04:33:23.852Z,20.98
2024-05-09T04:35:55.787Z,20.99
2024-05-09T04:38:26.047Z,20.86
2024-05-09T04:40:56.031Z,20.85
2024-05-09T04:43:26.193Z,20.79
2024-05-09T04:45:56.645Z,20.76
2024-05-09T04:48:26.941Z,20.85
2024-05-09T04:50:57.014Z,20.85
2024-05-09T04:53:27.940Z,20.76
2024-05-09T04:55:58.421Z,20.85
2024-05-09T04:58:28.556Z,20.78
2024-05-09T05:00:58.801Z,20.72
2024-05-09T05:03:29.060Z,20.65
2024-05-09T05:05:59.645Z,20.72
2024-05-09T05:08:29.743Z,20.63
2024-05-09T05:10:59.920Z,20.57
2024-05-09T05:13:33.896Z,20.51
2024-05-09T05:16:04.653Z,20.44
2024-05-09T05:18:34.591Z,20.40
2024-05-09T05:21:04.585Z,20.40
2024-05-09T05:23:34.790Z,20.33
2024-05-09T05:26:06.962Z,20.28
2024-05-09T05:28:37.054Z,20.31
2024-05-09T05:31:06.965Z,20.30
2024-05-09T05:33:36.997Z,20.27
2024-05-09T05:36:35.546Z,20.20
2024-05-09T05:39:06.219Z,20.27
2024-05-09T05:41:36.122Z,20.21
2024-05-09T05:44:06.542Z,20.16
2024-05-09T05:46:36.654Z,20.24
2024-05-09T05:49:06.769Z,20.10
2024-05-09T05:51:37.395Z,20.09
2024-05-09T05:54:07.517Z,20.09
2024-05-09T05:56:39.960Z,20.09
2024-05-09T06:02:42.210Z,20.00
2024-05-09T06:05:12.483Z,19.96
2024-05-09T06:07:42.448Z,20.06
2024-05-09T06:10:17.642Z,19.97
2024-05-09T06:12:54.404Z,19.92
2024-05-09T06:15:25.143Z,19.86
2024-05-09T06:17:55.439Z,19.82
2024-05-09T06:20:34.559Z,20.03
2024-05-09T06:23:11.329Z,19.85
2024-05-09T06:25:43.047Z,19.73
2024-05-09T06:28:13.864Z,19.72
2024-05-09T06:30:43.964Z,19.69
2024-05-09T06:33:15.839Z,19.56
2024-05-09T06:35:48.120Z,19.55
2024-05-09T06:38:21.776Z,19.48
2024-05-09T06:41:16.926Z,19.62
2024-05-09T06:43:47.192Z,19.77
2024-05-09T06:46:17.379Z,19.82
2024-05-09T06:48:49.461Z,19.83
2024-05-09T06:51:20.815Z,19.63
2024-05-09T06:53:50.881Z,19.69
2024-05-09T06:56:21.067Z,19.69
2024-05-09T06:58:51.715Z,19.63
2024-05-09T07:01:21.994Z,19.56
2024-05-09T07:03:51.943Z,19.31
2024-05-09T07:06:22.283Z,19.06
2024-05-09T07:08:52.641Z,19.19
2024-05-09T07:11:23.185Z,19.12
2024-05-09T07:13:53.341Z,19.04
2024-05-09T07:16:23.296Z,19.27
2024-05-09T07:18:56.526Z,19.29
2024-05-09T07:21:27.294Z,19.28
2024-05-09T07:23:57.686Z,19.24
2024-05-09T07:26:27.799Z,19.19
2024-05-09T07:28:57.783Z,19.00
2024-05-09T07:31:53.339Z,18.84
2024-05-09T07:34:24.082Z,18.90
2024-05-09T07:36:54.623Z,19.00
2024-05-09T07:39:24.751Z,19.01
2024-05-09T07:41:55.775Z,19.00
2024-05-09T07:44:25.746Z,18.94
2024-05-09T07:48:13.990Z,18.87
2024-05-09T07:53:32.563Z,18.56
2024-05-09T07:55:20.007Z,18.55
2024-05-09T07:57:50.284Z,18.59
2024-05-09T08:00:27.146Z,18.40
2024-05-09T08:03:01.923Z,18.32
2024-05-09T08:05:57.264Z,18.46
2024-05-09T08:08:27.541Z,18.40
2024-05-09T08:10:57.423Z,18.61
2024-05-09T08:13:28.625Z,18.78
2024-05-09T08:15:59.993Z,18.87
2024-05-09T08:18:31.190Z,18.77
2024-05-09T08:21:01.656Z,18.77
2024-05-09T08:23:31.530Z,18.71
2024-05-09T08:26:02.608Z,18.59
2024-05-09T08:28:33.293Z,18.50
2024-05-09T08:31:06.713Z,18.45
2024-05-09T08:33:37.678Z,18.64
2024-05-09T08:36:33.384Z,18.61
2024-05-09T08:39:03.618Z,18.61
2024-05-09T08:41:58.465Z,18.43
2024-05-09T08:44:29.007Z,18.36
2024-05-09T08:46:59.899Z,18.26
2024-05-09T08:49:31.473Z,18.24
2024-05-09T08:52:01.712Z,18.18
2024-05-09T08:54:34.923Z,18.32
2024-05-09T08:57:07.033Z,18.25
2024-05-09T08:59:38.365Z,18.25
2024-05-09T09:02:34.756Z,18.18
2024-05-09T09:05:18.080Z,18.16
2024-05-09T09:07:53.569Z,18.12
2024-05-09T09:10:40.107Z,18.36
2024-05-09T09:13:12.370Z,18.52
2024-05-09T09:15:49.260Z,18.53
2024-05-09T09:18:20.461Z,18.39
2024-05-09T09:20:51.409Z,18.28
2024-05-09T09:23:22.573Z,18.25
2024-05-09T09:25:53.229Z,18.38
2024-05-09T09:28:25.690Z,18.49
2024-05-09T09:31:02.149Z,18.47
2024-05-09T09:33:37.658Z,18.39
2024-05-09T09:37:10.405Z,18.29
2024-05-09T09:39:43.212Z,18.46
2024-05-09T09:45:12.378Z,18.57
2024-05-09T09:47:44.590Z,18.61
2024-05-09T09:50:24.094Z,18.66
2024-05-09T09:53:02.701Z,18.68
2024-05-09T09:55:35.064Z,18.70
2024-05-09T09:58:07.711Z,18.68
2024-05-09T10:00:40.221Z,18.46
2024-05-09T10:03:10.670Z,18.46
2024-05-09T10:05:44.015Z,18.52
2024-05-09T10:08:21.582Z,18.50
2024-05-09T10:10:52.581Z,18.42
2024-05-09T10:13:35.576Z,18.40
2024-05-09T10:16:33.546Z,18.32
2024-05-09T10:19:04.171Z,18.19
2024-05-09T10:21:35.033Z,18.15
2024-05-09T10:24:11.116Z,18.30
2024-05-09T10:26:43.476Z,18.26
2024-05-09T10:29:44.878Z,18.16
2024-05-09T10:32:17.814Z,18.15
2024-05-09T10:35:40.603Z,18.13
2024-05-09T10:38:42.361Z,18.16
2024-05-09T10:42:18.987Z,18.18
2024-05-09T10:44:49.268Z,18.26
2024-05-09T10:47:23.769Z,18.24
2024-05-09T10:50:00.690Z,18.33
2024-05-09T10:52:31.508Z,18.33
2024-05-09T10:55:05.698Z,18.40
2024-05-09T10:57:42.229Z,18.42
2024-05-09T11:00:23.244Z,18.47
2024-05-09T11:03:00.409Z,18.50
2024-05-09T11:05:31.708Z,18.45
2024-05-09T11:08:02.266Z,18.60
2024-05-09T11:10:34.306Z,18.66
2024-05-09T11:13:09.575Z,18.68
2024-05-09T11:15:43.525Z,18.64
2024-05-09T11:18:28.719Z,18.47
2024-05-09T11:21:00.765Z,18.68
2024-05-09T11:23:31.496Z,18.98
2024-05-09T11:26:02.194Z,19.21
2024-05-09T11:28:38.752Z,19.25
2024-05-09T11:31:11.074Z,19.17
2024-05-09T11:33:41.637Z,18.90
2024-05-09T11:36:12.289Z,18.78
2024-05-09T11:38:42.895Z,18.71
2024-05-09T11:41:19.610Z,18.74
2024-05-09T11:43:49.761Z,18.80
2024-05-09T11:46:44.093Z,19.08
2024-05-09T11:49:40.172Z,18.84
2024-05-09T11:52:10.736Z,18.90
2024-05-09T11:54:40.982Z,18.80
2024-05-09T11:57:11.559Z,18.77
2024-05-09T11:59:41.809Z,18.73
2024-05-09T12:02:11.971Z,18.90
2024-05-09T12:04:42.530Z,19.07
2024-05-09T12:07:13.079Z,19.18
2024-05-09T12:09:45.191Z,19.10
2024-05-09T12:12:16.966Z,18.96
2024-05-09T12:14:47.078Z,18.87
2024-05-09T12:17:17.009Z,18.83
2024-05-09T12:19:46.969Z,18.68
2024-05-09T12:22:17.252Z,18.74
2024-05-09T12:24:48.682Z,18.76
2024-05-09T12:27:19.279Z,18.90
2024-05-09T12:29:49.627Z,19.41
2024-05-09T12:32:19.594Z,19.56
2024-05-09T12:34:49.445Z,19.67
2024-05-09T12:37:20.288Z,19.61
2024-05-09T12:39:51.003Z,19.67
2024-05-09T12:42:27.274Z,19.80
2024-05-09T12:44:58.976Z,19.73
2024-05-09T12:47:29.144Z,19.66
2024-05-09T12:49:59.652Z,19.56
2024-05-09T12:52:31.266Z,19.59
2024-05-09T12:55:01.771Z,19.61
2024-05-09T12:57:32.010Z,19.86
2024-05-09T13:02:32.243Z,19.79
2024-05-09T13:05:02.738Z,19.67
2024-05-09T13:07:33.354Z,19.77
2024-05-09T13:10:04.642Z,19.76
2024-05-09T13:12:36.923Z,19.76
2024-05-09T13:15:07.634Z,19.73
2024-05-09T13:17:37.602Z,19.82
2024-05-09T13:20:11.997Z,20.24
2024-05-09T13:22:49.838Z,20.51
2024-05-09T13:25:22.334Z,20.63
2024-05-09T13:27:53.810Z,20.59
2024-05-09T13:30:29.857Z,20.63
2024-05-09T13:33:10.667Z,20.30
2024-05-09T13:35:49.100Z,20.10
2024-05-09T13:38:21.615Z,19.80
2024-05-09T13:40:51.795Z,19.82
2024-05-09T13:43:24.979Z,19.67
2024-05-09T13:45:58.569Z,19.82
2024-05-09T13:48:29.285Z,19.96
2024-05-09T13:50:59.394Z,19.76
2024-05-09T13:53:33.820Z,19.94
2024-05-09T13:56:04.574Z,20.09
2024-05-09T13:58:34.655Z,20.30
2024-05-09T14:01:04.913Z,20.37
2024-05-09T14:03:35.908Z,20.33
2024-05-09T14:06:32.330Z,20.20
2024-05-09T14:09:27.838Z,20.01
2024-05-09T14:11:57.766Z,20.03
2024-05-09T14:14:27.820Z,20.06
2024-05-09T14:16:58.265Z,20.26
2024-05-09T14:19:28.287Z,20.45
2024-05-09T14:21:58.359Z,20.48
2024-05-09T14:24:30.231Z,20.59
2024-05-09T14:27:00.391Z,20.64
2024-05-09T14:29:30.774Z,20.40
2024-05-09T14:32:02.854Z,20.17
2024-05-09T14:34:33.181Z,20.20
2024-05-09T14:37:04.082Z,20.31
2024-05-09T14:39:34.704Z,20.01
2024-05-09T14:42:05.139Z,20.03
2024-05-09T14:44:35.490Z,19.85
2024-05-09T14:47:05.726Z,19.82
2024-05-09T14:49:36.216Z,19.77
2024-05-09T14:52:06.446Z,19.75
2024-05-09T14:54:36.579Z,19.80
2024-05-09T14:57:06.846Z,19.90
2024-05-09T14:59:37.023Z,19.87
2024-05-09T15:02:07.628Z,19.92
2024-05-09T15:05:02.869Z,20.20
2024-05-09T15:07:33.238Z,20.12
2024-05-09T15:10:03.600Z,19.94
2024-05-09T15:12:35.271Z,19.89
2024-05-09T15:15:06.134Z,20.00
2024-05-09T15:17:36.925Z,20.23
2024-05-09T15:20:09.370Z,20.37
2024-05-09T15:22:40.180Z,20.49
2024-05-09T15:25:10.094Z,20.45
2024-05-09T15:27:40.326Z,20.03
2024-05-09T15:30:11.095Z,20.00
2024-05-09T15:32:41.248Z,20.24
2024-05-09T15:35:11.635Z,20.33
2024-05-09T15:37:42.251Z,20.28
2024-05-09T15:40:18.504Z,20.16
2024-05-09T15:42:55.952Z,20.07
2024-05-09T15:45:26.017Z,20.07
2024-05-09T15:50:35.934Z,20.54
2024-05-09T15:53:14.098Z,20.48
2024-05-09T15:55:44.497Z,20.24
2024-05-09T15:58:40.299Z,20.24
2024-05-09T16:01:10.795Z,20.17
2024-05-09T16:04:06.451Z,20.05
2024-05-09T16:11:01.147Z,20.28
2024-05-09T16:13:31.710Z,19.97
2024-05-09T16:16:05.212Z,19.87
2024-05-09T16:18:35.881Z,19.87
2024-05-09T16:21:07.552Z,20.51
2024-05-09T16:28:09.982Z,20.89
2024-05-09T16:31:05.555Z,21.49
2024-05-09T16:33:36.107Z,21.15
2024-05-09T16:36:09.069Z,20.99
2024-05-09T16:39:13.328Z,20.88
2024-05-09T16:41:44.265Z,20.67
2024-05-09T16:44:15.254Z,20.81
2024-05-09T16:46:45.225Z,20.86
2024-05-09T16:49:15.674Z,20.82
2024-05-09T16:52:10.605Z,20.82
2024-05-09T16:54:43.452Z,20.94
2024-05-09T16:57:13.520Z,20.88
2024-05-09T16:59:47.844Z,20.69
2024-05-09T17:02:18.090Z,20.68
2024-05-09T17:04:49.077Z,21.16
2024-05-09T17:07:19.676Z,21.58
2024-05-09T17:09:50.214Z,21.60
2024-05-09T17:12:20.263Z,21.20
2024-05-09T17:15:19.252Z,20.81
2024-05-09T17:17:52.038Z,20.71
2024-05-09T17:20:29.555Z,20.94
2024-05-09T17:23:05.848Z,20.85
2024-05-09T17:25:41.999Z,20.84
2024-05-09T17:28:16.735Z,20.55
2024-05-09T17:30:46.926Z,20.58
2024-05-09T17:33:17.202Z,20.65
2024-05-09T17:35:51.439Z,20.65
2024-05-09T17:38:24.490Z,20.58
2024-05-09T17:40:57.188Z,20.54
2024-05-09T17:43:27.466Z,20.40
2024-05-09T17:46:02.459Z,20.26
2024-05-09T17:49:14.713Z,20.44
2024-05-09T17:56:19.466Z,20.59
2024-05-09T17:58:51.133Z,20.57
2024-05-09T18:01:27.955Z,20.51
2024-05-09T18:03:58.685Z,20.61
2024-05-09T18:06:36.894Z,20.45
2024-05-09T18:09:11.382Z,20.31
2024-05-09T18:29:22.828Z,19.92
2024-05-09T18:31:53.526Z,19.96
2024-05-09T18:34:53.127Z,20.14
2024-05-09T18:37:29.181Z,20.01
2024-05-09T18:39:59.482Z,19.92
2024-05-09T18:42:29.477Z,19.83
2024-05-09T18:44:59.818Z,19.80
2024-05-09T18:47:31.279Z,19.89
2024-05-09T18:50:02.179Z,19.96
2024-05-09T18:52:37.282Z,19.87
2024-05-09T18:55:09.281Z,19.93
2024-05-09T18:57:39.851Z,19.94
2024-05-09T19:00:22.974Z,20.10
2024-05-09T19:03:02.114Z,20.16
2024-05-09T19:05:34.253Z,20.20
2024-05-09T19:08:05.097Z,20.07
2024-05-09T19:10:38.828Z,20.16
2024-05-09T19:13:14.360Z,20.21
2024-05-09T19:15:48.476Z,20.13
2024-05-09T19:18:26.055Z,20.23
2024-05-09T19:21:00.032Z,20.28
2024-05-09T19:23:35.336Z,20.33
2024-05-09T19:26:09.645Z,20.38
2024-05-09T19:28:41.552Z,20.52
2024-05-09T19:31:12.060Z,20.57
2024-05-09T19:33:43.047Z,20.41
2024-05-09T19:36:13.664Z,20.38
2024-05-09T19:38:43.590Z,20.33
2024-05-09T19:42:15.560Z,20.28
2024-05-09T19:44:47.964Z,20.07
2024-05-09T19:47:18.087Z,20.24
2024-05-09T19:49:48.119Z,20.24
2024-05-09T19:52:18.023Z,20.21
2024-05-09T19:54:50.796Z,20.18
2024-05-09T19:57:21.401Z,20.07
2024-05-09T19:59:51.532Z,19.89
2024-05-09T20:02:21.715Z,19.80
2024-05-09T20:04:52.672Z,19.75
2024-05-09T20:07:28.065Z,19.76
2024-05-09T20:09:58.540Z,19.76
2024-05-09T20:12:32.057Z,19.77
2024-05-09T20:15:02.562Z,19.65
2024-05-09T20:17:32.531Z,19.63
2024-05-09T20:20:03.675Z,19.67
2024-05-09T20:22:35.683Z,19.67
2024-05-09T20:25:06.034Z,19.72
2024-05-09T20:27:39.694Z,19.73
2024-05-09T20:30:14.323Z,19.76
2024-05-09T20:32:46.670Z,19.89
2024-05-09T20:35:18.222Z,19.90
2024-05-09T20:37:49.026Z,19.82
2024-05-09T20:40:32.670Z,19.82
2024-05-09T20:43:08.120Z,19.83
2024-05-09T20:45:41.614Z,19.73
2024-05-09T20:48:21.453Z,19.75
2024-05-09T20:50:52.429Z,19.77
2024-05-09T20:53:23.093Z,19.77
2024-05-09T20:55:53.066Z,19.73
2024-05-09T20:58:23.142Z,19.73
2024-05-09T21:00:53.225Z,19.65
2024-05-09T21:03:23.539Z,19.62
2024-05-09T21:05:53.775Z,19.67
2024-05-09T21:08:25.208Z,19.72
2024-05-09T21:10:56.176Z,19.69
2024-05-09T21:13:26.230Z,19.63
2024-05-09T21:15:56.453Z,19.69
2024-05-09T21:18:26.643Z,19.63
2024-05-09T21:20:56.488Z,19.61
2024-05-09T21:23:26.825Z,19.54
2024-05-09T21:25:56.668Z,19.55
2024-05-09T21:28:27.236Z,19.63
2024-05-09T21:30:57.290Z,19.65
2024-05-09T21:33:27.741Z,19.59
2024-05-09T21:35:58.578Z,19.59
2024-05-09T21:38:29.378Z,19.55
2024-05-09T21:40:59.703Z,19.58
2024-05-09T21:43:32.589Z,19.67
2024-05-09T21:46:02.676Z,19.55
2024-05-09T21:48:32.709Z,19.58
2024-05-09T21:51:02.671Z,19.63
2024-05-09T21:53:34.475Z,19.70
2024-05-09T21:56:06.183Z,19.75
2024-05-09T21:58:36.322Z,19.67
2024-05-09T22:01:07.078Z,19.67
2024-05-09T22:03:37.527Z,19.67
2024-05-09T22:06:08.934Z,19.62
2024-05-09T22:08:39.751Z,19.65
2024-05-09T22:11:09.836Z,19.73
2024-05-09T22:13:40.045Z,19.61
2024-05-09T22:16:11.436Z,19.65
2024-05-09T22:18:42.334Z,19.69
2024-05-09T22:21:14.811Z,19.76
2024-05-09T22:23:45.103Z,19.77
2024-05-09T22:26:15.163Z,19.72
2024-05-09T22:28:45.036Z,19.73
2024-05-09T22:31:14.931Z,19.73
2024-05-09T22:33:47.129Z,19.77
2024-05-09T22:36:18.088Z,19.86
2024-05-09T22:38:48.636Z,19.92
2024-05-09T22:41:18.511Z,19.87
2024-05-09T22:43:51.545Z,19.89
2024-05-09T22:46:22.053Z,19.85
2024-05-09T22:48:53.093Z,19.83
2024-05-09T22:51:23.188Z,19.75
2024-05-09T22:53:53.084Z,19.73
2024-05-09T22:56:30.291Z,19.79
2024-05-09T22:59:03.280Z,19.79
2024-05-09T23:01:33.611Z,19.75
2024-05-09T23:04:04.462Z,19.92
2024-05-09T23:06:34.473Z,19.86
2024-05-09T23:09:05.465Z,19.72
2024-05-09T23:11:45.246Z,19.72
2024-05-09T23:14:37.518Z,19.67
2024-05-09T23:17:11.082Z,19.58
2024-05-09T23:19:44.002Z,19.61
2024-05-09T23:22:15.379Z,19.67
2024-05-09T23:24:48.793Z,19.70
2024-05-09T23:32:02.877Z,19.67
2024-05-09T23:34:33.267Z,19.67
2024-05-09T23:37:03.359Z,19.59
2024-05-09T23:39:33.737Z,19.54
2024-05-09T23:42:05.417Z,19.54
2024-05-09T23:44:35.699Z,19.44
2024-05-09T23:47:07.379Z,19.39
2024-05-09T23:49:38.679Z,19.36
2024-05-09T23:52:08.962Z,19.35
2024-05-09T23:54:39.224Z,19.39
2024-05-09T23:57:09.661Z,19.44
2024-05-09T23:59:39.536Z,19.45
